createdAt,value
2023-02-11T00:01:32.316Z,71.56
2023-02-11T00:03:59.553Z,71.87
2023-02-11T00:06:28.103Z,71.87
2023-02-11T00:08:55.856Z,71.70
2023-02-11T00:11:25.481Z,71.42
2023-02-11T00:13:52.633Z,71.66
2023-02-11T00:16:21.257Z,71.45
2023-02-11T00:18:47.942Z,71.59
2023-02-11T00:21:17.405Z,71.36
2023-02-11T00:23:44.609Z,71.57
2023-02-11T00:26:19.139Z,71.48
2023-02-11T00:28:46.490Z,71.38
2023-02-11T00:31:14.469Z,71.21
2023-02-11T00:33:41.803Z,71.88
2023-02-11T00:36:11.645Z,71.51
2023-02-11T00:38:38.058Z,71.69
2023-02-11T00:41:04.466Z,71.84
2023-02-11T00:43:30.893Z,72.01
2023-02-11T00:45:57.291Z,72.07
2023-02-11T00:48:23.687Z,72.13
2023-02-11T00:50:50.389Z,71.95
2023-02-11T00:53:16.899Z,71.96
2023-02-11T00:55:43.339Z,72.38
2023-02-11T00:58:09.749Z,72.50
2023-02-11T01:00:36.242Z,72.75
2023-02-11T01:03:02.798Z,72.88
2023-02-11T01:05:29.791Z,72.66
2023-02-11T01:07:56.335Z,72.96
2023-02-11T01:10:22.753Z,72.95
2023-02-11T01:12:49.202Z,72.71
2023-02-11T01:15:17.719Z,72.83
2023-02-11T01:17:44.253Z,73.00
2023-02-11T01:20:24.282Z,73.09
2023-02-11T01:22:50.803Z,73.32
2023-02-11T01:25:17.447Z,73.45
2023-02-11T01:27:43.811Z,73.71
2023-02-11T01:30:13.486Z,73.67
2023-02-11T01:32:40.046Z,73.71
2023-02-11T01:35:06.995Z,73.91
2023-02-11T01:37:34.020Z,73.95
2023-02-11T01:40:02.520Z,73.71
2023-02-11T01:42:29.215Z,73.19
2023-02-11T01:44:57.610Z,73.22
2023-02-11T01:47:24.024Z,73.25
2023-02-11T01:49:59.323Z,73.27
2023-02-11T01:52:35.120Z,72.84
2023-02-11T01:55:27.370Z,73.39
2023-02-11T01:57:59.250Z,73.21
2023-02-11T02:00:29.683Z,73.25
2023-02-11T02:03:04.825Z,73.30
2023-02-11T02:05:51.429Z,73.32
2023-02-11T02:08:21.683Z,73.25
2023-02-11T02:10:53.885Z,73.12
2023-02-11T02:13:20.651Z,73.03
2023-02-11T02:15:58.948Z,72.79
2023-02-11T02:18:36.465Z,72.81
2023-02-11T02:22:15.962Z,72.60
2023-02-11T02:25:01.048Z,72.47
2023-02-11T02:27:36.185Z,72.12
2023-02-11T02:30:37.840Z,72.30
2023-02-11T02:33:26.787Z,72.48
2023-02-11T02:36:18.089Z,72.24
2023-02-11T02:39:09.087Z,71.86
2023-02-11T02:41:38.479Z,72.09
2023-02-11T02:44:05.211Z,71.98
2023-02-11T02:46:34.002Z,72.64
2023-02-11T02:49:01.163Z,72.77
2023-02-11T02:51:30.409Z,72.37
2023-02-11T02:54:19.705Z,72.27
2023-02-11T02:57:04.481Z,71.79
2023-02-11T03:00:01.772Z,71.79
2023-02-11T03:02:42.260Z,71.77
2023-02-11T03:05:21.308Z,71.71
2023-02-11T03:07:50.415Z,71.83
2023-02-11T03:10:25.319Z,71.37
2023-02-11T03:12:53.826Z,71.26
2023-02-11T03:15:22.804Z,71.40
2023-02-11T03:17:53.937Z,71.64
2023-02-11T03:20:22.859Z,71.45
2023-02-11T03:22:55.670Z,71.35
2023-02-11T03:25:29.315Z,71.24
2023-02-11T03:28:27.019Z,71.57
2023-02-11T03:31:06.130Z,71.23
2023-02-11T03:33:48.346Z,71.30
2023-02-11T03:36:29.617Z,71.49
2023-02-11T03:39:00.240Z,71.54
2023-02-11T03:41:27.403Z,71.33
2023-02-11T03:43:57.001Z,71.32
2023-02-11T03:46:30.788Z,71.38
2023-02-11T03:49:03.066Z,71.64
2023-02-11T03:51:31.900Z,71.52
2023-02-11T03:54:01.846Z,70.98
2023-02-11T03:56:41.776Z,71.12
2023-02-11T03:59:08.452Z,71.38
2023-02-11T04:01:35.247Z,71.23
2023-02-11T04:04:01.699Z,71.08
2023-02-11T04:06:28.103Z,71.32
2023-02-11T04:08:54.599Z,70.73
2023-02-11T04:11:21.001Z,71.13
2023-02-11T04:13:47.607Z,71.04
2023-02-11T04:16:14.100Z,71.43
2023-02-11T04:18:40.551Z,71.12
2023-02-11T04:21:07.081Z,71.23
2023-02-11T04:23:33.552Z,71.12
2023-02-11T04:26:00.020Z,70.92
2023-02-11T04:28:29.309Z,70.91
2023-02-11T04:30:56.288Z,71.01
2023-02-11T04:33:23.173Z,71.16
2023-02-11T04:35:50.240Z,71.13
2023-02-11T04:38:16.862Z,71.22
2023-02-11T04:40:43.430Z,71.01
2023-02-11T04:43:09.816Z,71.40
2023-02-11T04:45:39.319Z,71.54
2023-02-11T04:48:05.932Z,71.47
2023-02-11T04:50:32.437Z,71.53
2023-02-11T04:52:58.903Z,71.19
2023-02-11T04:55:25.366Z,71.13
2023-02-11T04:57:52.061Z,71.52
2023-02-11T05:00:18.788Z,71.38
2023-02-11T05:02:45.188Z,71.43
2023-02-11T05:05:11.619Z,71.74
2023-02-11T05:07:38.040Z,71.73
2023-02-11T05:10:04.980Z,71.89
2023-02-11T05:12:31.420Z,71.72
2023-02-11T05:14:57.792Z,71.83
2023-02-11T05:17:24.285Z,71.51
2023-02-11T05:19:50.723Z,71.79
2023-02-11T05:22:17.164Z,72.18
2023-02-11T05:24:43.689Z,72.16
2023-02-11T05:27:10.126Z,71.83
2023-02-11T05:29:36.676Z,72.19
2023-02-11T05:32:03.195Z,72.08
2023-02-11T05:34:29.650Z,71.83
2023-02-11T05:36:56.247Z,72.01
2023-02-11T05:39:22.750Z,72.03
2023-02-11T05:41:49.211Z,71.99
2023-02-11T05:44:15.619Z,72.10
2023-02-11T05:46:42.061Z,71.98
2023-02-11T05:49:08.842Z,72.11
2023-02-11T05:51:35.313Z,71.56
2023-02-11T05:54:01.888Z,72.29
2023-02-11T05:56:28.268Z,72.24
2023-02-11T05:58:54.688Z,72.28
2023-02-11T06:01:21.146Z,72.36
2023-02-11T06:03:49.998Z,72.14
2023-02-11T06:06:16.842Z,72.51
2023-02-11T06:08:43.676Z,72.42
2023-02-11T06:11:10.061Z,72.37
2023-02-11T06:13:36.589Z,72.45
2023-02-11T06:16:03.554Z,72.58
2023-02-11T06:18:30.178Z,72.40
2023-02-11T06:20:56.667Z,72.50
2023-02-11T06:23:23.142Z,72.31
2023-02-11T06:25:50.186Z,72.43
2023-02-11T06:28:16.915Z,72.42
2023-02-11T06:30:43.515Z,72.58
2023-02-11T06:33:09.979Z,72.64
2023-02-11T06:35:38.838Z,72.62
2023-02-11T06:38:05.341Z,72.38
2023-02-11T06:40:31.762Z,72.57
2023-02-11T06:42:58.190Z,72.69
2023-02-11T06:45:24.619Z,72.37
2023-02-11T06:47:52.716Z,72.87
2023-02-11T06:50:19.360Z,72.67
2023-02-11T06:52:46.035Z,72.49
2023-02-11T06:55:12.506Z,72.74
2023-02-11T06:57:38.945Z,72.87
2023-02-11T07:00:06.051Z,72.62
2023-02-11T07:02:32.644Z,72.40
2023-02-11T07:04:59.129Z,72.47
2023-02-11T07:07:25.578Z,72.59
2023-02-11T07:09:52.077Z,72.38
2023-02-11T07:12:18.476Z,72.47
2023-02-11T07:14:44.904Z,72.23
2023-02-11T07:17:11.301Z,72.35
2023-02-11T07:19:37.706Z,72.32
2023-02-11T07:22:04.083Z,72.10
2023-02-11T07:24:30.558Z,72.38
2023-02-11T07:26:57.062Z,72.22
2023-02-11T07:29:23.615Z,72.33
2023-02-11T07:31:50.396Z,72.21
2023-02-11T07:34:16.888Z,72.36
2023-02-11T07:36:45.039Z,72.18
2023-02-11T07:39:11.475Z,72.23
2023-02-11T07:41:38.354Z,72.26
2023-02-11T07:44:05.052Z,71.93
2023-02-11T07:46:31.609Z,72.01
2023-02-11T07:48:58.157Z,72.09
2023-02-11T07:51:27.858Z,71.82
2023-02-11T07:53:55.527Z,72.06
2023-02-11T07:56:22.516Z,72.24
2023-02-11T07:58:50.060Z,72.28
2023-02-11T08:01:24.885Z,72.39
2023-02-11T08:03:52.730Z,72.42
2023-02-11T08:06:20.985Z,72.08
2023-02-11T08:08:47.986Z,72.38
2023-02-11T08:11:21.378Z,72.16
2023-02-11T08:13:48.161Z,72.51
2023-02-11T08:16:26.227Z,71.94
2023-02-11T08:18:55.415Z,71.82
2023-02-11T08:21:21.768Z,72.01
2023-02-11T08:23:49.606Z,71.53
2023-02-11T08:26:22.779Z,71.39
2023-02-11T08:28:51.220Z,71.47
2023-02-11T08:31:24.140Z,71.63
2023-02-11T08:33:51.204Z,71.31
2023-02-11T08:36:26.576Z,71.51
2023-02-11T08:38:57.153Z,71.84
2023-02-11T08:41:29.756Z,71.84
2023-02-11T08:43:56.211Z,72.03
2023-02-11T08:46:22.673Z,72.04
2023-02-11T08:48:49.169Z,71.54
2023-02-11T08:51:19.485Z,71.97
2023-02-11T08:53:46.900Z,71.48
2023-02-11T08:56:19.971Z,71.81
2023-02-11T08:58:47.403Z,72.19
2023-02-11T09:01:17.358Z,72.12
2023-02-11T09:03:44.541Z,72.41
2023-02-11T09:06:12.802Z,72.04
2023-02-11T09:08:46.326Z,71.92
2023-02-11T09:11:13.478Z,71.85
2023-02-11T09:13:42.480Z,72.32
2023-02-11T09:16:15.580Z,71.98
2023-02-11T09:18:42.059Z,72.14
2023-02-11T09:21:09.506Z,71.97
2023-02-11T09:23:36.355Z,71.97
2023-02-11T09:26:09.185Z,71.94
2023-02-11T09:28:36.122Z,71.79
2023-02-11T09:31:11.573Z,72.19
2023-02-11T09:33:48.513Z,72.36
2023-02-11T09:36:20.759Z,72.63
2023-02-11T09:38:48.464Z,72.33
2023-02-11T09:41:31.700Z,72.51
2023-02-11T09:44:02.877Z,72.29
2023-02-11T09:46:36.464Z,72.26
2023-02-11T09:49:04.977Z,71.94
2023-02-11T09:51:53.800Z,72.12
2023-02-11T09:54:48.135Z,71.65
2023-02-11T09:57:27.902Z,71.61
2023-02-11T09:59:57.193Z,71.56
2023-02-11T10:02:36.448Z,71.87
2023-02-11T10:05:13.292Z,71.35
2023-02-11T10:08:02.986Z,70.99
2023-02-11T10:11:31.314Z,70.93
2023-02-11T10:14:24.857Z,71.71
2023-02-11T10:17:04.438Z,71.42
2023-02-11T10:19:36.908Z,71.77
2023-02-11T10:22:15.575Z,71.37
2023-02-11T10:24:44.472Z,71.16
2023-02-11T10:27:21.809Z,71.42
2023-02-11T10:30:05.004Z,71.72
2023-02-11T10:32:39.284Z,71.57
2023-02-11T10:35:15.296Z,72.01
2023-02-11T10:37:44.476Z,71.61
2023-02-11T10:40:20.216Z,71.69
2023-02-11T10:42:55.470Z,71.41
2023-02-11T10:45:31.896Z,71.91
2023-02-11T10:48:01.928Z,71.50
2023-02-11T10:50:33.369Z,71.64
2023-02-11T10:53:13.426Z,71.26
2023-02-11T10:55:55.797Z,71.36
2023-02-11T10:58:32.372Z,71.62
2023-02-11T11:01:00.321Z,71.60
2023-02-11T11:03:33.091Z,71.69
2023-02-11T11:06:02.702Z,72.13
2023-02-11T11:08:49.495Z,71.98
2023-02-11T11:11:18.695Z,72.23
2023-02-11T11:13:54.224Z,71.64
2023-02-11T11:16:27.383Z,71.49
2023-02-11T11:19:21.323Z,71.85
2023-02-11T11:21:55.653Z,71.81
2023-02-11T11:24:29.414Z,71.75
2023-02-11T11:27:00.875Z,71.51
2023-02-11T11:29:38.284Z,71.20
2023-02-11T11:32:28.959Z,71.66
2023-02-11T11:34:59.197Z,71.26
2023-02-11T11:37:31.908Z,71.75
2023-02-11T11:40:03.549Z,71.83
2023-02-11T11:42:33.390Z,71.86
2023-02-11T11:45:01.281Z,71.33
2023-02-11T11:47:51.508Z,71.16
2023-02-11T11:50:49.330Z,71.34
2023-02-11T11:53:27.800Z,71.62
2023-02-11T11:56:02.962Z,71.28
2023-02-11T11:58:31.395Z,71.50
2023-02-11T12:01:28.515Z,71.26
2023-02-11T12:04:15.938Z,71.57
2023-02-11T12:07:00.140Z,71.43
2023-02-11T12:09:48.813Z,71.85
2023-02-11T12:12:37.433Z,71.41
2023-02-11T12:15:28.539Z,71.54
2023-02-11T12:18:13.276Z,71.26
2023-02-11T12:21:18.662Z,71.23
2023-02-11T12:24:06.142Z,71.58
2023-02-11T12:26:47.747Z,71.32
2023-02-11T12:29:26.439Z,71.37
2023-02-11T12:32:05.191Z,71.08
2023-02-11T12:34:59.877Z,71.32
2023-02-11T12:37:37.136Z,71.69
2023-02-11T12:40:33.389Z,71.17
2023-02-11T12:43:16.701Z,70.94
2023-02-11T12:46:08.268Z,71.19
2023-02-11T12:49:08.337Z,71.45
2023-02-11T12:51:37.805Z,71.03
2023-02-11T12:54:06.545Z,71.46
2023-02-11T12:56:39.608Z,71.48
2023-02-11T12:59:14.357Z,71.69
2023-02-11T13:01:44.329Z,71.83
2023-02-11T13:04:26.771Z,72.78
2023-02-11T13:07:02.261Z,72.28
2023-02-11T13:10:02.639Z,72.17
2023-02-11T13:12:49.166Z,72.10
2023-02-11T13:15:16.195Z,72.26
2023-02-11T13:18:12.371Z,72.66
2023-02-11T13:20:54.179Z,72.75
2023-02-11T13:23:54.097Z,72.46
2023-02-11T13:26:20.387Z,72.45
2023-02-11T13:28:57.372Z,72.90
2023-02-11T13:31:27.276Z,72.87
2023-02-11T13:33:54.028Z,72.74
2023-02-11T13:36:26.398Z,72.71
2023-02-11T13:39:02.108Z,72.51
2023-02-11T13:41:35.021Z,72.36
2023-02-11T13:44:10.480Z,72.87
2023-02-11T13:47:01.864Z,72.83
2023-02-11T13:49:40.466Z,73.04
2023-02-11T13:52:22.158Z,73.14
2023-02-11T13:54:51.662Z,73.23
2023-02-11T13:57:21.144Z,73.34
2023-02-11T13:59:50.621Z,73.21
2023-02-11T14:02:35.915Z,73.28
2023-02-11T14:05:23.913Z,73.67
2023-02-11T14:08:30.267Z,73.42
2023-02-11T14:10:59.400Z,73.47
2023-02-11T14:13:33.159Z,73.40
2023-02-11T14:16:22.691Z,73.51
2023-02-11T14:18:54.580Z,73.75
2023-02-11T14:21:33.680Z,73.60
2023-02-11T14:24:04.793Z,73.49
2023-02-11T14:26:45.882Z,73.26
2023-02-11T14:29:18.128Z,73.27
2023-02-11T14:31:53.962Z,73.27
2023-02-11T14:34:48.284Z,73.45
2023-02-11T14:37:50.461Z,73.67
2023-02-11T14:40:40.356Z,73.61
2023-02-11T14:43:39.145Z,73.71
2023-02-11T14:46:05.938Z,73.78
2023-02-11T14:48:36.128Z,73.66
2023-02-11T14:51:18.382Z,73.85
2023-02-11T14:53:49.576Z,73.99
2023-02-11T14:56:24.577Z,74.41
2023-02-11T14:58:51.996Z,74.31
2023-02-11T15:01:40.175Z,74.32
2023-02-11T15:04:23.911Z,74.64
2023-02-11T15:06:51.013Z,74.91
2023-02-11T15:09:32.225Z,74.84
2023-02-11T15:11:58.919Z,75.21
2023-02-11T15:14:30.277Z,75.45
2023-02-11T15:17:01.105Z,75.44
2023-02-11T15:19:41.598Z,75.94
2023-02-11T15:22:20.299Z,75.70
2023-02-11T15:24:58.421Z,76.02
2023-02-11T15:27:25.742Z,76.20
2023-02-11T15:29:52.639Z,75.95
2023-02-11T15:32:24.876Z,76.28
2023-02-11T15:34:53.817Z,75.89
2023-02-11T15:37:29.086Z,76.24
2023-02-11T15:40:07.327Z,76.25
2023-02-11T15:42:47.181Z,76.22
2023-02-11T15:45:28.913Z,76.70
2023-02-11T15:48:21.336Z,76.75
2023-02-11T15:50:58.753Z,77.01
2023-02-11T15:53:43.979Z,76.89
2023-02-11T15:56:43.192Z,76.69
2023-02-11T15:59:18.204Z,76.80
2023-02-11T16:01:47.005Z,76.93
2023-02-11T16:04:22.380Z,76.80
2023-02-11T16:06:49.439Z,76.86
2023-02-11T16:09:15.810Z,77.24
2023-02-11T16:11:48.259Z,77.01
2023-02-11T16:14:39.199Z,77.39
2023-02-11T16:17:23.810Z,77.46
2023-02-11T16:19:52.725Z,77.45
2023-02-11T16:22:24.207Z,77.55
2023-02-11T16:24:53.337Z,77.32
2023-02-11T16:27:22.712Z,77.45
2023-02-11T16:29:50.800Z,77.59
2023-02-11T16:32:20.451Z,77.60
2023-02-11T16:34:48.574Z,77.37
2023-02-11T16:37:15.320Z,77.35
2023-02-11T16:39:42.036Z,77.46
2023-02-11T16:42:09.765Z,77.57
2023-02-11T16:44:36.296Z,77.30
2023-02-11T16:47:04.283Z,77.23
2023-02-11T16:49:34.573Z,77.42
2023-02-11T16:52:05.434Z,77.71
2023-02-11T16:54:31.980Z,77.58
2023-02-11T16:56:58.811Z,77.56
2023-02-11T16:59:25.262Z,77.64
2023-02-11T17:01:53.614Z,77.52
2023-02-11T17:04:21.479Z,77.35
2023-02-11T17:06:50.888Z,77.36
2023-02-11T17:09:20.060Z,77.11
2023-02-11T17:11:47.114Z,77.15
2023-02-11T17:14:13.803Z,76.92
2023-02-11T17:16:40.334Z,77.22
2023-02-11T17:19:07.306Z,77.27
2023-02-11T17:21:33.734Z,77.73
2023-02-11T17:24:00.182Z,77.71
2023-02-11T17:26:26.802Z,77.80
2023-02-11T17:28:53.376Z,77.71
2023-02-11T17:31:19.978Z,78.17
2023-02-11T17:33:47.390Z,78.62
2023-02-11T17:36:13.785Z,78.33
2023-02-11T17:38:40.159Z,78.28
2023-02-11T17:41:06.712Z,78.56
2023-02-11T17:43:33.244Z,78.17
2023-02-11T17:45:59.683Z,78.54
2023-02-11T17:48:28.651Z,78.43
2023-02-11T17:50:55.127Z,78.11
2023-02-11T17:53:21.597Z,78.34
2023-02-11T17:55:48.097Z,78.36
2023-02-11T17:58:14.583Z,78.98
2023-02-11T18:00:43.485Z,79.19
2023-02-11T18:03:09.928Z,79.25
2023-02-11T18:05:37.489Z,79.51
2023-02-11T18:08:06.298Z,79.51
2023-02-11T18:10:33.521Z,79.71
2023-02-11T18:13:01.128Z,80.18
2023-02-11T18:15:28.121Z,79.74
2023-02-11T18:17:55.457Z,80.16
2023-02-11T18:20:21.901Z,80.40
2023-02-11T18:22:50.595Z,79.97
2023-02-11T18:25:18.674Z,80.98
2023-02-11T18:27:45.122Z,80.90
2023-02-11T18:30:16.255Z,80.37
2023-02-11T18:32:43.041Z,80.70
2023-02-11T18:35:16.437Z,81.02
2023-02-11T18:37:42.994Z,81.58
2023-02-11T18:40:13.710Z,81.53
2023-02-11T18:42:40.422Z,82.06
2023-02-11T18:45:12.982Z,82.43
2023-02-11T18:47:39.480Z,82.62
2023-02-11T18:50:08.026Z,83.33
2023-02-11T18:52:38.428Z,83.06
2023-02-11T18:55:08.662Z,83.12
2023-02-11T18:57:36.179Z,83.13
2023-02-11T19:00:02.725Z,83.09
2023-02-11T19:02:30.346Z,83.03
2023-02-11T19:04:56.746Z,82.86
2023-02-11T19:07:25.356Z,83.39
2023-02-11T19:09:51.751Z,83.29
2023-02-11T19:12:18.686Z,83.70
2023-02-11T19:14:45.179Z,83.68
2023-02-11T19:17:12.682Z,83.98
2023-02-11T19:19:43.564Z,83.60
2023-02-11T19:22:10.973Z,84.49
2023-02-11T19:24:37.936Z,83.53
2023-02-11T19:27:04.892Z,83.94
2023-02-11T19:29:33.359Z,84.37
2023-02-11T19:31:59.803Z,83.70
2023-02-11T19:34:26.433Z,82.68
2023-02-11T19:36:54.197Z,82.91
2023-02-11T19:39:21.035Z,83.35
2023-02-11T19:41:49.223Z,82.72
2023-02-11T19:44:16.127Z,83.65
2023-02-11T19:46:42.578Z,84.19
2023-02-11T19:49:19.833Z,83.54
2023-02-11T19:51:46.243Z,84.06
2023-02-11T19:54:15.485Z,84.13
2023-02-11T19:56:41.943Z,84.08
2023-02-11T19:59:09.043Z,83.78
2023-02-11T20:01:36.509Z,83.31
2023-02-11T20:04:03.519Z,83.69
2023-02-11T20:06:33.704Z,84.25
2023-02-11T20:09:02.710Z,83.80
2023-02-11T20:11:31.163Z,84.00
2023-02-11T20:14:01.975Z,84.57
2023-02-11T20:16:46.973Z,84.30
2023-02-11T20:19:19.668Z,83.19
2023-02-11T20:21:48.152Z,83.85
2023-02-11T20:24:19.163Z,83.97
2023-02-11T20:26:48.074Z,83.68
2023-02-11T20:29:16.296Z,83.59
2023-02-11T20:31:46.178Z,83.93
2023-02-11T20:34:12.835Z,83.93
2023-02-11T20:36:42.088Z,83.04
2023-02-11T20:39:11.336Z,82.53
2023-02-11T20:41:41.499Z,83.20
2023-02-11T20:44:10.360Z,84.22
2023-02-11T20:46:40.191Z,84.37
2023-02-11T20:49:08.506Z,84.20
2023-02-11T20:51:37.857Z,84.21
2023-02-11T20:54:06.013Z,84.63
2023-02-11T20:56:35.265Z,84.47
2023-02-11T20:59:03.744Z,84.62
2023-02-11T21:01:40.679Z,84.80
2023-02-11T21:04:11.802Z,84.70
2023-02-11T21:06:41.260Z,84.94
2023-02-11T21:09:08.926Z,84.88
2023-02-11T21:11:35.556Z,85.23
2023-02-11T21:14:02.380Z,85.40
2023-02-11T21:16:29.071Z,85.46
2023-02-11T21:18:55.563Z,84.74
2023-02-11T21:21:22.412Z,85.58
2023-02-11T21:23:48.931Z,85.13
2023-02-11T21:26:16.924Z,85.41
2023-02-11T21:28:43.886Z,85.51
2023-02-11T21:31:18.855Z,84.99
2023-02-11T21:33:45.401Z,85.57
2023-02-11T21:36:11.863Z,85.40
2023-02-11T21:38:40.996Z,86.01
2023-02-11T21:41:07.387Z,85.74
2023-02-11T21:43:33.912Z,86.16
2023-02-11T21:46:00.685Z,86.33
2023-02-11T21:48:27.238Z,86.12
2023-02-11T21:50:53.794Z,86.39
2023-02-11T21:53:20.252Z,86.28
2023-02-11T21:55:46.836Z,86.14
2023-02-11T21:58:13.583Z,86.61
2023-02-11T22:00:40.071Z,86.68
2023-02-11T22:03:06.520Z,85.83
2023-02-11T22:05:32.955Z,85.97
2023-02-11T22:07:59.426Z,86.36
2023-02-11T22:10:25.869Z,86.40
2023-02-11T22:12:52.242Z,86.29
2023-02-11T22:15:18.709Z,86.04
2023-02-11T22:17:45.133Z,86.21
2023-02-11T22:20:11.844Z,86.04
2023-02-11T22:22:38.273Z,86.26
2023-02-11T22:25:04.941Z,85.70
2023-02-11T22:27:31.427Z,85.27
2023-02-11T22:29:57.811Z,85.56
2023-02-11T22:32:24.206Z,85.49
2023-02-11T22:34:53.184Z,86.54
2023-02-11T22:37:20.117Z,85.86
2023-02-11T22:39:46.558Z,86.08
2023-02-11T22:42:13.005Z,85.38
2023-02-11T22:44:42.273Z,85.82
2023-02-11T22:47:08.705Z,85.97
2023-02-11T22:49:35.622Z,85.85
2023-02-11T22:52:04.942Z,85.66
2023-02-11T22:54:31.392Z,85.16
2023-02-11T22:56:57.827Z,85.58
2023-02-11T22:59:24.274Z,84.96
2023-02-11T23:01:50.827Z,84.50
2023-02-11T23:04:19.079Z,85.42
2023-02-11T23:06:47.562Z,85.29
2023-02-11T23:09:14.004Z,85.65
2023-02-11T23:11:41.307Z,85.73
2023-02-11T23:14:08.644Z,85.73
2023-02-11T23:16:35.635Z,85.51
2023-02-11T23:19:07.972Z,85.29
2023-02-11T23:21:38.017Z,85.68
2023-02-11T23:24:11.308Z,85.38
2023-02-11T23:26:42.374Z,85.76
2023-02-11T23:29:10.054Z,84.63
2023-02-11T23:31:40.016Z,84.42
2023-02-11T23:34:08.162Z,84.78
2023-02-11T23:36:35.037Z,85.23
2023-02-11T23:39:01.453Z,84.46
2023-02-11T23:41:27.969Z,84.87
2023-02-11T23:43:57.213Z,84.74
2023-02-11T23:46:25.981Z,85.20
2023-02-11T23:48:52.977Z,84.46
2023-02-11T23:51:20.328Z,84.65
2023-02-11T23:53:50.290Z,85.02
2023-02-11T23:56:20.364Z,85.21
2023-02-11T23:58:51.646Z,85.39
